sensor_id;sensor_type;location;lat;lon;timestamp;pressure;altitude;pressure_sealevel;temperature;humidity
70930;BME280;58588;48.102;19.682;2024-01-27T00:00:27;99663.34;;;7.17;100.00
70930;BME280;58588;48.102;19.682;2024-01-27T00:03:29;99667.78;;;7.35;100.00
70930;BME280;58588;48.102;19.682;2024-01-27T00:06:33;99664.44;;;7.33;100.00
70930;BME280;58588;48.102;19.682;2024-01-27T00:09:35;99666.56;;;7.63;100.00
70930;BME280;58588;48.102;19.682;2024-01-27T00:12:37;99664.94;;;7.95;100.00
70930;BME280;58588;48.102;19.682;2024-01-27T00:15:39;99670.53;;;7.17;100.00
70930;BME280;58588;48.102;19.682;2024-01-27T00:18:41;99678.66;;;6.99;100.00
70930;BME280;58588;48.102;19.682;2024-01-27T00:21:44;99686.16;;;7.21;100.00
70930;BME280;58588;48.102;19.682;2024-01-27T00:24:46;99698.00;;;6.85;100.00
70930;BME280;58588;48.102;19.682;2024-01-27T00:27:48;99699.94;;;6.57;100.00
70930;BME280;58588;48.102;19.682;2024-01-27T00:30:50;99717.25;;;6.62;100.00
70930;BME280;58588;48.102;19.682;2024-01-27T00:33:52;99732.28;;;6.81;100.00
70930;BME280;58588;48.102;19.682;2024-01-27T00:36:55;99740.34;;;6.81;100.00
70930;BME280;58588;48.102;19.682;2024-01-27T00:39:57;99747.63;;;6.53;100.00
70930;BME280;58588;48.102;19.682;2024-01-27T00:42:59;99756.38;;;6.55;100.00
70930;BME280;58588;48.102;19.682;2024-01-27T00:46:01;99784.22;;;6.62;100.00
70930;BME280;58588;48.102;19.682;2024-01-27T00:49:03;99791.47;;;6.70;100.00
70930;BME280;58588;48.102;19.682;2024-01-27T00:52:07;99786.56;;;6.83;100.00
70930;BME280;58588;48.102;19.682;2024-01-27T00:55:09;99803.41;;;6.58;100.00
70930;BME280;58588;48.102;19.682;2024-01-27T00:58:11;99780.38;;;6.65;100.00
70930;BME280;58588;48.102;19.682;2024-01-27T01:01:13;99793.03;;;6.73;100.00
70930;BME280;58588;48.102;19.682;2024-01-27T01:04:15;99791.78;;;6.67;100.00
70930;BME280;58588;48.102;19.682;2024-01-27T01:07:18;99785.44;;;6.50;100.00
70930;BME280;58588;48.102;19.682;2024-01-27T01:10:20;99796.66;;;6.89;100.00
70930;BME280;58588;48.102;19.682;2024-01-27T01:13:22;99827.00;;;6.90;100.00
70930;BME280;58588;48.102;19.682;2024-01-27T01:16:24;99832.09;;;7.01;100.00
70930;BME280;58588;48.102;19.682;2024-01-27T01:19:26;99832.78;;;7.21;100.00
70930;BME280;58588;48.102;19.682;2024-01-27T01:22:30;99822.56;;;7.24;100.00
70930;BME280;58588;48.102;19.682;2024-01-27T01:25:32;99821.13;;;7.56;100.00
70930;BME280;58588;48.102;19.682;2024-01-27T01:28:34;99826.41;;;7.48;100.00
70930;BME280;58588;48.102;19.682;2024-01-27T01:31:36;99827.56;;;7.19;100.00
70930;BME280;58588;48.102;19.682;2024-01-27T01:34:38;99845.56;;;7.27;100.00
70930;BME280;58588;48.102;19.682;2024-01-27T01:37:41;99843.41;;;7.31;100.00
70930;BME280;58588;48.102;19.682;2024-01-27T01:40:43;99838.84;;;7.05;100.00
70930;BME280;58588;48.102;19.682;2024-01-27T01:43:45;99844.75;;;6.91;100.00
70930;BME280;58588;48.102;19.682;2024-01-27T01:46:47;99842.41;;;7.32;100.00
70930;BME280;58588;48.102;19.682;2024-01-27T01:49:50;99824.13;;;7.27;100.00
70930;BME280;58588;48.102;19.682;2024-01-27T01:52:53;99827.97;;;6.89;100.00
70930;BME280;58588;48.102;19.682;2024-01-27T01:55:56;99843.09;;;6.90;100.00
70930;BME280;58588;48.102;19.682;2024-01-27T01:58:59;99847.22;;;7.02;100.00
70930;BME280;58588;48.102;19.682;2024-01-27T02:02:01;99840.06;;;6.93;100.00
70930;BME280;58588;48.102;19.682;2024-01-27T02:05:03;99835.50;;;6.85;100.00
70930;BME280;58588;48.102;19.682;2024-01-27T02:08:07;99827.81;;;6.37;100.00
70930;BME280;58588;48.102;19.682;2024-01-27T02:11:09;99835.44;;;6.32;100.00
70930;BME280;58588;48.102;19.682;2024-01-27T02:14:11;99840.84;;;6.50;100.00
70930;BME280;58588;48.102;19.682;2024-01-27T02:17:13;99841.28;;;6.45;100.00
70930;BME280;58588;48.102;19.682;2024-01-27T02:20:15;99841.88;;;6.39;100.00
70930;BME280;58588;48.102;19.682;2024-01-27T02:23:18;99846.44;;;6.56;100.00
70930;BME280;58588;48.102;19.682;2024-01-27T02:26:22;99849.03;;;6.21;100.00
70930;BME280;58588;48.102;19.682;2024-01-27T02:29:24;99853.47;;;6.12;100.00
70930;BME280;58588;48.102;19.682;2024-01-27T02:32:28;99840.09;;;6.12;100.00
70930;BME280;58588;48.102;19.682;2024-01-27T02:35:29;99849.97;;;6.29;100.00
70930;BME280;58588;48.102;19.682;2024-01-27T02:38:31;99860.34;;;6.42;100.00
70930;BME280;58588;48.102;19.682;2024-01-27T02:41:35;99847.59;;;6.26;100.00
70930;BME280;58588;48.102;19.682;2024-01-27T02:44:39;99862.38;;;6.30;100.00
70930;BME280;58588;48.102;19.682;2024-01-27T02:47:41;99882.28;;;6.46;100.00
70930;BME280;58588;48.102;19.682;2024-01-27T02:50:43;99886.88;;;6.53;100.00
70930;BME280;58588;48.102;19.682;2024-01-27T02:53:45;99897.69;;;6.43;100.00
70930;BME280;58588;48.102;19.682;2024-01-27T02:56:49;99891.59;;;6.41;100.00
70930;BME280;58588;48.102;19.682;2024-01-27T02:59:51;99905.72;;;6.43;100.00
70930;BME280;58588;48.102;19.682;2024-01-27T03:02:53;99909.06;;;6.46;100.00
70930;BME280;58588;48.102;19.682;2024-01-27T03:05:57;99926.56;;;6.40;100.00
70930;BME280;58588;48.102;19.682;2024-01-27T03:08:59;99922.25;;;6.29;100.00
70930;BME280;58588;48.102;19.682;2024-01-27T03:12:03;99931.16;;;6.30;100.00
70930;BME280;58588;48.102;19.682;2024-01-27T03:15:05;99938.78;;;6.25;100.00
70930;BME280;58588;48.102;19.682;2024-01-27T03:18:08;99946.88;;;6.42;100.00
70930;BME280;58588;48.102;19.682;2024-01-27T03:21:10;99950.38;;;6.43;99.51
70930;BME280;58588;48.102;19.682;2024-01-27T03:24:12;99945.75;;;6.35;99.53
70930;BME280;58588;48.102;19.682;2024-01-27T03:27:15;99964.41;;;6.27;99.19
70930;BME280;58588;48.102;19.682;2024-01-27T03:30:18;99956.38;;;6.27;98.22
70930;BME280;58588;48.102;19.682;2024-01-27T03:33:20;99962.06;;;6.14;98.19
70930;BME280;58588;48.102;19.682;2024-01-27T03:36:23;99959.13;;;5.98;97.99
70930;BME280;58588;48.102;19.682;2024-01-27T03:39:25;99963.91;;;6.04;97.45
70930;BME280;58588;48.102;19.682;2024-01-27T03:42:28;99966.84;;;6.11;96.67
70930;BME280;58588;48.102;19.682;2024-01-27T03:45:30;99982.78;;;6.12;96.95
70930;BME280;58588;48.102;19.682;2024-01-27T03:48:32;99982.72;;;6.22;95.80
70930;BME280;58588;48.102;19.682;2024-01-27T03:51:35;99991.31;;;6.26;95.18
70930;BME280;58588;48.102;19.682;2024-01-27T03:54:37;99999.63;;;6.23;94.38
70930;BME280;58588;48.102;19.682;2024-01-27T03:57:40;100018.41;;;6.13;93.53
70930;BME280;58588;48.102;19.682;2024-01-27T04:00:42;100017.13;;;6.17;91.64
70930;BME280;58588;48.102;19.682;2024-01-27T04:03:44;100033.75;;;6.11;90.84
70930;BME280;58588;48.102;19.682;2024-01-27T04:06:46;100036.88;;;6.06;89.83
70930;BME280;58588;48.102;19.682;2024-01-27T04:09:48;100050.25;;;6.06;89.50
70930;BME280;58588;48.102;19.682;2024-01-27T04:12:52;100061.53;;;6.00;88.84
70930;BME280;58588;48.102;19.682;2024-01-27T04:15:56;100057.81;;;6.30;86.15
70930;BME280;58588;48.102;19.682;2024-01-27T04:18:59;100072.31;;;6.37;85.97
70930;BME280;58588;48.102;19.682;2024-01-27T04:22:02;100059.94;;;6.17;84.91
70930;BME280;58588;48.102;19.682;2024-01-27T04:25:05;100078.69;;;6.17;84.19
70930;BME280;58588;48.102;19.682;2024-01-27T04:28:09;100080.03;;;6.40;82.07
70930;BME280;58588;48.102;19.682;2024-01-27T04:31:12;100075.16;;;6.36;82.73
70930;BME280;58588;48.102;19.682;2024-01-27T04:34:14;100093.31;;;6.23;83.21
70930;BME280;58588;48.102;19.682;2024-01-27T04:37:16;100097.72;;;6.14;82.51
70930;BME280;58588;48.102;19.682;2024-01-27T04:40:18;100112.63;;;6.16;82.09
70930;BME280;58588;48.102;19.682;2024-01-27T04:43:21;100125.72;;;5.90;82.80
70930;BME280;58588;48.102;19.682;2024-01-27T04:46:23;100127.09;;;5.75;82.89
70930;BME280;58588;48.102;19.682;2024-01-27T04:49:26;100125.53;;;5.63;83.13
70930;BME280;58588;48.102;19.682;2024-01-27T04:52:28;100136.25;;;5.63;83.64
70930;BME280;58588;48.102;19.682;2024-01-27T04:55:30;100132.88;;;5.61;83.47
70930;BME280;58588;48.102;19.682;2024-01-27T04:58:33;100152.28;;;5.63;83.06
70930;BME280;58588;48.102;19.682;2024-01-27T05:01:35;100163.44;;;5.78;84.07
70930;BME280;58588;48.102;19.682;2024-01-27T05:04:37;100177.53;;;5.70;83.54
70930;BME280;58588;48.102;19.682;2024-01-27T05:07:39;100183.44;;;5.74;83.57
70930;BME280;58588;48.102;19.682;2024-01-27T05:10:41;100190.00;;;6.00;83.40
70930;BME280;58588;48.102;19.682;2024-01-27T05:13:45;100210.91;;;5.76;83.93
70930;BME280;58588;48.102;19.682;2024-01-27T05:16:46;100223.31;;;5.86;83.10
70930;BME280;58588;48.102;19.682;2024-01-27T05:19:49;100228.56;;;5.98;83.29
70930;BME280;58588;48.102;19.682;2024-01-27T05:22:52;100215.84;;;5.90;83.72
70930;BME280;58588;48.102;19.682;2024-01-27T05:25:54;100228.38;;;5.89;85.01
70930;BME280;58588;48.102;19.682;2024-01-27T05:28:57;100239.91;;;5.80;85.78
70930;BME280;58588;48.102;19.682;2024-01-27T05:31:59;100249.88;;;6.19;85.95
70930;BME280;58588;48.102;19.682;2024-01-27T05:35:01;100249.75;;;6.30;85.68
70930;BME280;58588;48.102;19.682;2024-01-27T05:38:04;100250.75;;;6.48;85.17
70930;BME280;58588;48.102;19.682;2024-01-27T05:41:05;100266.81;;;6.58;85.80
70930;BME280;58588;48.102;19.682;2024-01-27T05:44:12;100269.63;;;6.47;86.42
70930;BME280;58588;48.102;19.682;2024-01-27T05:47:14;100276.53;;;6.59;86.71
70930;BME280;58588;48.102;19.682;2024-01-27T05:50:16;100283.31;;;6.73;86.09
70930;BME280;58588;48.102;19.682;2024-01-27T05:53:18;100293.31;;;6.70;86.46
70930;BME280;58588;48.102;19.682;2024-01-27T05:56:38;100284.00;;;6.26;87.62
70930;BME280;58588;48.102;19.682;2024-01-27T05:59:42;100289.22;;;6.47;88.19
70930;BME280;58588;48.102;19.682;2024-01-27T06:02:44;100294.41;;;6.29;88.28
70930;BME280;58588;48.102;19.682;2024-01-27T06:05:46;100297.94;;;6.20;89.21
70930;BME280;58588;48.102;19.682;2024-01-27T06:08:48;100304.84;;;6.32;90.58
70930;BME280;58588;48.102;19.682;2024-01-27T06:11:50;100313.34;;;5.97;91.41
70930;BME280;58588;48.102;19.682;2024-01-27T06:14:53;100309.03;;;6.15;91.68
70930;BME280;58588;48.102;19.682;2024-01-27T06:17:58;100302.16;;;6.13;91.93
70930;BME280;58588;48.102;19.682;2024-01-27T06:21:00;100309.47;;;6.21;91.35
70930;BME280;58588;48.102;19.682;2024-01-27T06:24:02;100313.41;;;6.07;91.05
70930;BME280;58588;48.102;19.682;2024-01-27T06:27:04;100316.63;;;6.10;90.51
70930;BME280;58588;48.102;19.682;2024-01-27T06:30:09;100323.66;;;6.11;89.94
70930;BME280;58588;48.102;19.682;2024-01-27T06:33:11;100323.38;;;6.05;90.54
70930;BME280;58588;48.102;19.682;2024-01-27T06:36:13;100334.41;;;6.21;90.07
70930;BME280;58588;48.102;19.682;2024-01-27T06:39:15;100337.78;;;6.23;89.66
70930;BME280;58588;48.102;19.682;2024-01-27T06:42:18;100350.66;;;6.39;89.47
70930;BME280;58588;48.102;19.682;2024-01-27T06:45:22;100344.91;;;6.43;88.67
70930;BME280;58588;48.102;19.682;2024-01-27T06:48:24;100340.13;;;6.57;88.30
70930;BME280;58588;48.102;19.682;2024-01-27T06:51:26;100343.94;;;6.64;87.57
70930;BME280;58588;48.102;19.682;2024-01-27T06:54:28;100358.75;;;6.87;87.75
70930;BME280;58588;48.102;19.682;2024-01-27T06:57:30;100360.88;;;7.03;87.99
70930;BME280;58588;48.102;19.682;2024-01-27T07:00:35;100371.03;;;7.09;88.54
70930;BME280;58588;48.102;19.682;2024-01-27T07:03:37;100368.63;;;7.06;88.22
70930;BME280;58588;48.102;19.682;2024-01-27T07:06:41;100365.78;;;7.17;88.95
70930;BME280;58588;48.102;19.682;2024-01-27T07:09:43;100366.66;;;7.08;87.35
70930;BME280;58588;48.102;19.682;2024-01-27T07:12:45;100370.00;;;7.39;86.57
70930;BME280;58588;48.102;19.682;2024-01-27T07:15:49;100368.19;;;7.40;86.96
70930;BME280;58588;48.102;19.682;2024-01-27T07:18:51;100372.09;;;7.55;85.59
70930;BME280;58588;48.102;19.682;2024-01-27T07:21:53;100387.41;;;7.82;84.69
70930;BME280;58588;48.102;19.682;2024-01-27T07:24:55;100383.06;;;8.09;81.91
70930;BME280;58588;48.102;19.682;2024-01-27T07:27:57;100382.91;;;7.83;83.89
70930;BME280;58588;48.102;19.682;2024-01-27T07:31:00;100371.28;;;8.19;82.12
70930;BME280;58588;48.102;19.682;2024-01-27T07:34:02;100379.25;;;8.11;81.46
70930;BME280;58588;48.102;19.682;2024-01-27T07:37:06;100387.78;;;7.97;80.91
70930;BME280;58588;48.102;19.682;2024-01-27T07:40:09;100385.59;;;7.73;81.17
70930;BME280;58588;48.102;19.682;2024-01-27T07:43:12;100389.59;;;7.69;81.91
70930;BME280;58588;48.102;19.682;2024-01-27T07:46:15;100395.00;;;7.40;77.27
70930;BME280;58588;48.102;19.682;2024-01-27T07:49:19;100391.69;;;7.75;76.74
70930;BME280;58588;48.102;19.682;2024-01-27T07:52:21;100391.28;;;7.70;75.80
70930;BME280;58588;48.102;19.682;2024-01-27T07:55:24;100384.31;;;7.87;78.38
70930;BME280;58588;48.102;19.682;2024-01-27T07:58:26;100394.38;;;7.65;76.91
70930;BME280;58588;48.102;19.682;2024-01-27T08:01:30;100397.53;;;7.51;76.13
70930;BME280;58588;48.102;19.682;2024-01-27T08:04:32;100395.28;;;7.37;77.03
70930;BME280;58588;48.102;19.682;2024-01-27T08:07:34;100399.53;;;7.39;75.69
70930;BME280;58588;48.102;19.682;2024-01-27T08:10:36;100406.19;;;7.92;77.03
70930;BME280;58588;48.102;19.682;2024-01-27T08:13:38;100402.19;;;7.96;76.89
70930;BME280;58588;48.102;19.682;2024-01-27T08:16:42;100403.09;;;7.87;76.48
70930;BME280;58588;48.102;19.682;2024-01-27T08:19:44;100405.19;;;7.93;75.12
70930;BME280;58588;48.102;19.682;2024-01-27T08:22:45;100410.81;;;7.33;74.02
70930;BME280;58588;48.102;19.682;2024-01-27T08:25:50;100409.91;;;7.71;72.94
70930;BME280;58588;48.102;19.682;2024-01-27T08:28:53;100411.06;;;7.69;72.87
70930;BME280;58588;48.102;19.682;2024-01-27T08:31:58;100416.53;;;7.87;72.79
70930;BME280;58588;48.102;19.682;2024-01-27T08:35:00;100420.06;;;8.15;72.12
70930;BME280;58588;48.102;19.682;2024-01-27T08:38:02;100424.25;;;7.99;70.27
70930;BME280;58588;48.102;19.682;2024-01-27T08:41:04;100438.38;;;8.01;71.52
70930;BME280;58588;48.102;19.682;2024-01-27T08:44:06;100444.09;;;7.69;70.60
70930;BME280;58588;48.102;19.682;2024-01-27T08:47:09;100459.19;;;8.37;70.53
70930;BME280;58588;48.102;19.682;2024-01-27T08:50:11;100441.88;;;8.02;70.78
70930;BME280;58588;48.102;19.682;2024-01-27T08:53:13;100444.47;;;8.41;68.78
70930;BME280;58588;48.102;19.682;2024-01-27T08:56:15;100435.84;;;8.37;70.05
70930;BME280;58588;48.102;19.682;2024-01-27T08:59:18;100430.72;;;8.44;69.43
70930;BME280;58588;48.102;19.682;2024-01-27T09:02:21;100414.03;;;8.68;70.33
70930;BME280;58588;48.102;19.682;2024-01-27T09:05:23;100417.94;;;8.55;69.85
70930;BME280;58588;48.102;19.682;2024-01-27T09:08:25;100408.66;;;8.68;69.46
70930;BME280;58588;48.102;19.682;2024-01-27T09:11:26;100400.53;;;8.60;68.54
70930;BME280;58588;48.102;19.682;2024-01-27T09:14:30;100407.44;;;8.35;67.78
70930;BME280;58588;48.102;19.682;2024-01-27T09:17:35;100395.44;;;8.56;67.63
70930;BME280;58588;48.102;19.682;2024-01-27T09:20:37;100386.31;;;8.67;68.49
70930;BME280;58588;48.102;19.682;2024-01-27T09:23:39;100388.16;;;8.67;67.83
70930;BME280;58588;48.102;19.682;2024-01-27T09:26:41;100381.91;;;8.76;67.46
70930;BME280;58588;48.102;19.682;2024-01-27T09:29:43;100390.25;;;8.73;67.25
70930;BME280;58588;48.102;19.682;2024-01-27T09:32:46;100394.25;;;9.04;67.52
70930;BME280;58588;48.102;19.682;2024-01-27T09:35:48;100382.88;;;8.75;66.26
70930;BME280;58588;48.102;19.682;2024-01-27T09:38:50;100396.03;;;8.96;64.59
70930;BME280;58588;48.102;19.682;2024-01-27T09:41:54;100398.50;;;8.89;65.81
70930;BME280;58588;48.102;19.682;2024-01-27T09:44:56;100402.03;;;9.25;65.03
70930;BME280;58588;48.102;19.682;2024-01-27T09:48:03;100393.41;;;9.04;63.82
70930;BME280;58588;48.102;19.682;2024-01-27T09:51:08;100392.41;;;9.23;63.78
70930;BME280;58588;48.102;19.682;2024-01-27T09:54:10;100398.56;;;9.15;62.91
70930;BME280;58588;48.102;19.682;2024-01-27T09:57:11;100389.25;;;9.09;63.23
70930;BME280;58588;48.102;19.682;2024-01-27T10:00:14;100392.41;;;9.05;62.99
70930;BME280;58588;48.102;19.682;2024-01-27T10:03:19;100407.44;;;9.51;62.31
70930;BME280;58588;48.102;19.682;2024-01-27T10:06:21;100403.81;;;9.86;63.75
70930;BME280;58588;48.102;19.682;2024-01-27T10:09:23;100408.41;;;10.20;62.53
70930;BME280;58588;48.102;19.682;2024-01-27T10:12:25;100409.09;;;9.96;61.03
70930;BME280;58588;48.102;19.682;2024-01-27T10:15:28;100424.84;;;9.39;61.46
70930;BME280;58588;48.102;19.682;2024-01-27T10:18:32;100423.94;;;9.30;60.27
70930;BME280;58588;48.102;19.682;2024-01-27T10:21:34;100424.38;;;9.08;60.95
70930;BME280;58588;48.102;19.682;2024-01-27T10:24:36;100427.00;;;8.82;60.40
70930;BME280;58588;48.102;19.682;2024-01-27T10:27:38;100433.66;;;8.78;60.51
70930;BME280;58588;48.102;19.682;2024-01-27T10:30:40;100432.53;;;9.16;60.91
70930;BME280;58588;48.102;19.682;2024-01-27T10:33:52;100437.38;;;9.48;62.23
70930;BME280;58588;48.102;19.682;2024-01-27T10:36:55;100431.47;;;9.71;59.15
70930;BME280;58588;48.102;19.682;2024-01-27T10:40:00;100432.69;;;9.76;59.91
70930;BME280;58588;48.102;19.682;2024-01-27T10:43:04;100432.91;;;9.83;60.21
70930;BME280;58588;48.102;19.682;2024-01-27T10:46:07;100429.56;;;9.63;58.91
70930;BME280;58588;48.102;19.682;2024-01-27T10:49:12;100432.38;;;9.79;57.25
70930;BME280;58588;48.102;19.682;2024-01-27T10:52:15;100427.53;;;10.09;58.24
70930;BME280;58588;48.102;19.682;2024-01-27T10:55:20;100430.84;;;10.29;57.83
70930;BME280;58588;48.102;19.682;2024-01-27T10:58:23;100418.34;;;9.93;57.86
70930;BME280;58588;48.102;19.682;2024-01-27T11:01:26;100410.84;;;9.79;59.18
70930;BME280;58588;48.102;19.682;2024-01-27T11:04:33;100411.34;;;9.83;59.39
70930;BME280;58588;48.102;19.682;2024-01-27T11:07:38;100420.59;;;9.54;58.20
70930;BME280;58588;48.102;19.682;2024-01-27T11:10:41;100418.47;;;9.84;59.44
70930;BME280;58588;48.102;19.682;2024-01-27T11:13:44;100421.97;;;9.58;59.22
70930;BME280;58588;48.102;19.682;2024-01-27T11:16:54;100435.09;;;9.18;58.41
70930;BME280;58588;48.102;19.682;2024-01-27T11:19:58;100444.28;;;9.15;58.39
70930;BME280;58588;48.102;19.682;2024-01-27T11:23:09;100449.00;;;9.13;58.58
70930;BME280;58588;48.102;19.682;2024-01-27T11:26:11;100440.13;;;9.03;58.91
70930;BME280;58588;48.102;19.682;2024-01-27T11:29:18;100431.63;;;9.69;59.68
70930;BME280;58588;48.102;19.682;2024-01-27T11:32:21;100425.03;;;9.89;59.83
70930;BME280;58588;48.102;19.682;2024-01-27T11:35:24;100427.19;;;10.12;57.29
70930;BME280;58588;48.102;19.682;2024-01-27T11:38:26;100420.81;;;10.47;56.67
70930;BME280;58588;48.102;19.682;2024-01-27T11:41:29;100421.56;;;10.65;58.40
70930;BME280;58588;48.102;19.682;2024-01-27T11:44:34;100416.56;;;10.36;57.49
70930;BME280;58588;48.102;19.682;2024-01-27T11:47:36;100401.56;;;10.76;57.70
70930;BME280;58588;48.102;19.682;2024-01-27T11:50:39;100389.75;;;10.69;57.66
70930;BME280;58588;48.102;19.682;2024-01-27T11:53:41;100378.97;;;10.77;57.35
70930;BME280;58588;48.102;19.682;2024-01-27T11:56:45;100386.75;;;10.88;56.97
70930;BME280;58588;48.102;19.682;2024-01-27T11:59:47;100390.78;;;10.84;56.25
70930;BME280;58588;48.102;19.682;2024-01-27T12:02:50;100387.78;;;11.04;55.37
70930;BME280;58588;48.102;19.682;2024-01-27T12:05:54;100388.78;;;11.19;55.92
70930;BME280;58588;48.102;19.682;2024-01-27T12:08:56;100378.69;;;11.13;56.27
70930;BME280;58588;48.102;19.682;2024-01-27T12:11:59;100381.38;;;11.53;54.21
70930;BME280;58588;48.102;19.682;2024-01-27T12:15:01;100399.78;;;11.42;55.16
70930;BME280;58588;48.102;19.682;2024-01-27T12:18:04;100390.88;;;10.58;53.62
70930;BME280;58588;48.102;19.682;2024-01-27T12:21:08;100391.41;;;10.70;55.16
70930;BME280;58588;48.102;19.682;2024-01-27T12:24:15;100394.97;;;10.79;54.69
70930;BME280;58588;48.102;19.682;2024-01-27T12:27:17;100389.31;;;10.39;54.93
70930;BME280;58588;48.102;19.682;2024-01-27T12:30:21;100379.72;;;10.11;55.62
70930;BME280;58588;48.102;19.682;2024-01-27T12:33:22;100389.19;;;10.57;56.29
70930;BME280;58588;48.102;19.682;2024-01-27T12:36:27;100385.41;;;11.01;56.56
70930;BME280;58588;48.102;19.682;2024-01-27T12:39:31;100385.09;;;11.20;54.32
70930;BME280;58588;48.102;19.682;2024-01-27T12:42:33;100388.25;;;10.83;53.63
70930;BME280;58588;48.102;19.682;2024-01-27T12:45:35;100390.53;;;10.61;54.66
70930;BME280;58588;48.102;19.682;2024-01-27T12:48:37;100395.59;;;10.22;54.87
70930;BME280;58588;48.102;19.682;2024-01-27T12:51:42;100402.59;;;9.81;55.36
70930;BME280;58588;48.102;19.682;2024-01-27T12:54:44;100396.28;;;9.90;55.79
70930;BME280;58588;48.102;19.682;2024-01-27T12:57:46;100409.09;;;9.96;55.84
70930;BME280;58588;48.102;19.682;2024-01-27T13:00:49;100403.28;;;9.57;55.40
70930;BME280;58588;48.102;19.682;2024-01-27T13:03:51;100402.25;;;9.32;55.87
70930;BME280;58588;48.102;19.682;2024-01-27T13:06:54;100416.19;;;9.53;57.64
70930;BME280;58588;48.102;19.682;2024-01-27T13:09:56;100418.47;;;9.22;56.92
70930;BME280;58588;48.102;19.682;2024-01-27T13:12:58;100419.00;;;9.70;57.00
70930;BME280;58588;48.102;19.682;2024-01-27T13:16:00;100432.66;;;9.50;56.92
70930;BME280;58588;48.102;19.682;2024-01-27T13:19:02;100422.28;;;9.55;57.19
70930;BME280;58588;48.102;19.682;2024-01-27T13:22:05;100430.63;;;9.26;57.42
70930;BME280;58588;48.102;19.682;2024-01-27T13:25:08;100414.63;;;9.43;57.24
70930;BME280;58588;48.102;19.682;2024-01-27T13:28:10;100413.16;;;9.48;56.91
70930;BME280;58588;48.102;19.682;2024-01-27T13:31:13;100413.78;;;9.42;56.00
70930;BME280;58588;48.102;19.682;2024-01-27T13:34:15;100412.06;;;9.23;55.99
70930;BME280;58588;48.102;19.682;2024-01-27T13:37:18;100412.41;;;9.20;56.05
70930;BME280;58588;48.102;19.682;2024-01-27T13:40:20;100418.78;;;9.19;57.31
70930;BME280;58588;48.102;19.682;2024-01-27T13:43:22;100408.88;;;9.02;58.57
70930;BME280;58588;48.102;19.682;2024-01-27T13:46:24;100411.09;;;8.89;58.76
70930;BME280;58588;48.102;19.682;2024-01-27T13:49:26;100420.59;;;8.65;57.98
70930;BME280;58588;48.102;19.682;2024-01-27T13:52:29;100417.44;;;8.70;58.86
70930;BME280;58588;48.102;19.682;2024-01-27T13:55:32;100422.81;;;8.70;58.61
70930;BME280;58588;48.102;19.682;2024-01-27T13:58:34;100420.97;;;8.70;58.98
70930;BME280;58588;48.102;19.682;2024-01-27T14:01:36;100431.56;;;8.72;58.70
70930;BME280;58588;48.102;19.682;2024-01-27T14:04:38;100431.97;;;8.77;58.83
70930;BME280;58588;48.102;19.682;2024-01-27T14:07:41;100432.34;;;8.64;59.30
70930;BME280;58588;48.102;19.682;2024-01-27T14:10:43;100431.13;;;8.76;58.30
70930;BME280;58588;48.102;19.682;2024-01-27T14:13:46;100434.19;;;8.99;58.20
70930;BME280;58588;48.102;19.682;2024-01-27T14:16:48;100442.53;;;8.88;58.95
70930;BME280;58588;48.102;19.682;2024-01-27T14:19:50;100442.16;;;9.01;58.94
70930;BME280;58588;48.102;19.682;2024-01-27T14:22:53;100452.44;;;8.88;59.77
70930;BME280;58588;48.102;19.682;2024-01-27T14:25:55;100451.19;;;8.82;60.03
70930;BME280;58588;48.102;19.682;2024-01-27T14:28:57;100446.34;;;8.85;60.27
70930;BME280;58588;48.102;19.682;2024-01-27T14:31:59;100452.69;;;8.67;60.25
70930;BME280;58588;48.102;19.682;2024-01-27T14:35:01;100454.06;;;8.43;59.65
70930;BME280;58588;48.102;19.682;2024-01-27T14:38:07;100462.69;;;8.47;59.21
70930;BME280;58588;48.102;19.682;2024-01-27T14:41:10;100462.19;;;8.61;59.68
70930;BME280;58588;48.102;19.682;2024-01-27T14:44:13;100468.94;;;8.38;59.95
70930;BME280;58588;48.102;19.682;2024-01-27T14:47:15;100479.22;;;8.52;60.33
70930;BME280;58588;48.102;19.682;2024-01-27T14:50:17;100483.19;;;8.48;60.86
70930;BME280;58588;48.102;19.682;2024-01-27T14:53:21;100480.66;;;8.46;61.30
70930;BME280;58588;48.102;19.682;2024-01-27T14:56:23;100482.16;;;8.02;61.53
70930;BME280;58588;48.102;19.682;2024-01-27T14:59:24;100489.41;;;7.72;61.12
70930;BME280;58588;48.102;19.682;2024-01-27T15:02:28;100485.00;;;8.00;59.71
70930;BME280;58588;48.102;19.682;2024-01-27T15:05:30;100500.13;;;8.01;59.58
70930;BME280;58588;48.102;19.682;2024-01-27T15:08:38;100499.94;;;8.22;60.24
70930;BME280;58588;48.102;19.682;2024-01-27T15:11:40;100495.06;;;7.98;60.86
70930;BME280;58588;48.102;19.682;2024-01-27T15:14:42;100496.75;;;7.99;61.48
70930;BME280;58588;48.102;19.682;2024-01-27T15:17:44;100494.94;;;7.61;61.88
70930;BME280;58588;48.102;19.682;2024-01-27T15:20:46;100488.72;;;7.70;62.92
70930;BME280;58588;48.102;19.682;2024-01-27T15:23:49;100488.88;;;7.69;62.69
70930;BME280;58588;48.102;19.682;2024-01-27T15:26:52;100503.13;;;7.60;63.38
70930;BME280;58588;48.102;19.682;2024-01-27T15:29:54;100502.16;;;7.41;63.93
70930;BME280;58588;48.102;19.682;2024-01-27T15:32:56;100508.63;;;7.48;63.76
70930;BME280;58588;48.102;19.682;2024-01-27T15:35:58;100500.88;;;7.36;63.92
70930;BME280;58588;48.102;19.682;2024-01-27T15:39:01;100505.69;;;7.42;64.35
70930;BME280;58588;48.102;19.682;2024-01-27T15:42:04;100499.88;;;7.37;64.74
70930;BME280;58588;48.102;19.682;2024-01-27T15:45:06;100517.25;;;7.42;64.27
70930;BME280;58588;48.102;19.682;2024-01-27T15:48:08;100524.72;;;7.29;64.95
70930;BME280;58588;48.102;19.682;2024-01-27T15:51:12;100532.63;;;7.31;64.97
70930;BME280;58588;48.102;19.682;2024-01-27T15:54:15;100534.19;;;7.33;66.12